createdAt,value
2023-05-23T00:00:59.710Z,6.80
2023-05-23T00:03:27.120Z,6.67
2023-05-23T00:05:54.055Z,6.47
2023-05-23T00:08:21.052Z,6.77
2023-05-23T00:10:47.850Z,6.87
2023-05-23T00:13:14.925Z,5.27
2023-05-23T00:15:42.619Z,6.03
2023-05-23T00:18:11.296Z,6.70
2023-05-23T00:20:41.032Z,6.67
2023-05-23T00:23:09.586Z,6.23
2023-05-23T00:25:36.833Z,7.10
2023-05-23T00:28:04.335Z,6.63
2023-05-23T00:30:32.285Z,6.27
2023-05-23T00:33:00.451Z,6.47
2023-05-23T00:35:27.613Z,7.10
2023-05-23T00:37:55.731Z,7.10
2023-05-23T00:40:23.277Z,7.20
2023-05-23T00:42:50.344Z,7.70
2023-05-23T00:45:17.923Z,6.83
2023-05-23T00:47:45.255Z,7.17
2023-05-23T00:50:18.175Z,7.50
2023-05-23T00:52:46.098Z,7.60
2023-05-23T00:55:13.531Z,6.50
2023-05-23T00:57:41.777Z,7.30
2023-05-23T01:00:10.274Z,7.30
2023-05-23T01:02:56.205Z,6.50
2023-05-23T01:05:25.185Z,8.33
2023-05-23T01:07:52.833Z,7.80
2023-05-23T01:10:21.579Z,7.67
2023-05-23T01:12:57.210Z,7.77
2023-05-23T01:15:27.981Z,7.63
2023-05-23T01:17:54.878Z,7.03
2023-05-23T01:20:22.935Z,7.93
2023-05-23T01:23:02.372Z,7.73
2023-05-23T01:25:48.176Z,7.80
2023-05-23T01:28:16.939Z,7.57
2023-05-23T01:30:45.721Z,7.17
2023-05-23T01:33:14.683Z,7.07
2023-05-23T01:35:43.980Z,7.07
2023-05-23T01:38:10.852Z,7.87
2023-05-23T01:40:39.218Z,7.67
2023-05-23T01:43:06.503Z,7.50
2023-05-23T01:45:33.982Z,8.10
2023-05-23T01:48:01.404Z,7.47
2023-05-23T01:50:28.523Z,8.03
2023-05-23T01:52:56.364Z,7.93
2023-05-23T01:55:26.694Z,7.20
2023-05-23T01:57:57.892Z,8.00
2023-05-23T02:00:25.260Z,7.27
2023-05-23T02:02:52.392Z,8.40
2023-05-23T02:05:19.512Z,7.77
2023-05-23T02:07:46.356Z,7.40
2023-05-23T02:10:13.327Z,7.63
2023-05-23T02:12:40.165Z,7.60
2023-05-23T02:15:07.911Z,8.30
2023-05-23T02:17:35.028Z,7.60
2023-05-23T02:20:01.932Z,8.03
2023-05-23T02:22:28.840Z,7.77
2023-05-23T02:24:56.085Z,7.43
2023-05-23T02:27:23.073Z,8.10
2023-05-23T02:29:49.933Z,7.97
2023-05-23T02:32:16.908Z,7.97
2023-05-23T02:34:46.833Z,8.27
2023-05-23T02:37:14.170Z,8.40
2023-05-23T02:39:41.755Z,8.63
2023-05-23T02:42:08.836Z,7.97
2023-05-23T02:44:35.899Z,7.83
2023-05-23T02:47:02.951Z,8.10
2023-05-23T02:49:29.852Z,7.70
2023-05-23T02:51:56.844Z,8.00
2023-05-23T02:54:23.787Z,8.27
2023-05-23T02:56:52.526Z,8.17
2023-05-23T02:59:19.441Z,8.30
2023-05-23T03:01:46.366Z,7.77
2023-05-23T03:04:13.975Z,7.73
2023-05-23T03:06:42.397Z,8.47
2023-05-23T03:09:10.205Z,8.37
2023-05-23T03:11:37.564Z,8.80
2023-05-23T03:14:04.487Z,7.90
2023-05-23T03:16:32.096Z,7.97
2023-05-23T03:18:59.402Z,7.83
2023-05-23T03:21:26.345Z,7.17
2023-05-23T03:23:53.444Z,7.30
2023-05-23T03:26:22.149Z,7.20
2023-05-23T03:28:51.492Z,7.37
2023-05-23T03:31:19.821Z,7.77
2023-05-23T03:33:46.726Z,8.27
2023-05-23T03:36:13.717Z,7.50
2023-05-23T03:38:41.454Z,6.27
2023-05-23T03:41:08.589Z,7.77
2023-05-23T03:43:35.604Z,7.37
2023-05-23T03:46:02.834Z,7.33
2023-05-23T03:48:30.820Z,7.53
2023-05-23T03:50:57.851Z,7.77
2023-05-23T03:53:25.474Z,7.77
2023-05-23T03:55:54.218Z,7.57
2023-05-23T03:58:21.641Z,8.30
2023-05-23T04:00:53.403Z,7.80
2023-05-23T04:03:21.588Z,7.97
2023-05-23T04:05:50.384Z,8.37
2023-05-23T04:08:17.976Z,7.73
2023-05-23T04:10:44.970Z,7.90
2023-05-23T04:13:12.018Z,8.37
2023-05-23T04:15:40.170Z,8.50
2023-05-23T04:18:11.026Z,8.47
2023-05-23T04:20:38.238Z,8.53
2023-05-23T04:23:05.671Z,8.90
2023-05-23T04:25:36.192Z,7.47
2023-05-23T04:28:13.328Z,7.77
2023-05-23T04:30:40.428Z,7.73
2023-05-23T04:33:08.250Z,7.67
2023-05-23T04:35:39.152Z,7.27
2023-05-23T04:38:06.792Z,7.90
2023-05-23T04:40:34.237Z,8.30
2023-05-23T04:43:22.073Z,8.43
2023-05-23T04:45:58.479Z,8.43
2023-05-23T04:48:36.262Z,8.53
2023-05-23T04:51:06.533Z,8.27
2023-05-23T04:53:35.088Z,8.27
2023-05-23T04:56:02.735Z,6.90
2023-05-23T04:58:32.030Z,7.43
2023-05-23T05:01:03.803Z,7.23
2023-05-23T05:03:31.958Z,7.40
2023-05-23T05:05:59.489Z,7.60
2023-05-23T05:08:26.307Z,7.00
2023-05-23T05:10:54.575Z,7.80
2023-05-23T05:13:21.545Z,7.27
2023-05-23T05:15:52.988Z,7.20
2023-05-23T05:18:20.271Z,6.77
2023-05-23T05:20:47.422Z,6.83
2023-05-23T05:23:16.228Z,5.97
2023-05-23T05:25:43.381Z,6.60
2023-05-23T05:28:10.308Z,7.30
2023-05-23T05:30:46.630Z,6.47
2023-05-23T05:33:14.450Z,5.90
2023-05-23T05:35:41.777Z,6.00
2023-05-23T05:38:11.118Z,6.27
2023-05-23T05:40:39.725Z,6.03
2023-05-23T05:43:06.908Z,6.33
2023-05-23T05:45:34.804Z,6.07
2023-05-23T05:48:01.679Z,6.40
2023-05-23T05:50:29.600Z,6.67
2023-05-23T05:52:56.611Z,6.83
2023-05-23T05:55:23.520Z,6.30
2023-05-23T05:57:53.671Z,6.13
2023-05-23T06:00:22.517Z,6.47
2023-05-23T06:02:57.743Z,5.97
2023-05-23T06:05:38.001Z,7.10
2023-05-23T06:08:05.777Z,6.77
2023-05-23T06:10:32.597Z,7.37
2023-05-23T06:13:00.025Z,5.83
2023-05-23T06:15:27.305Z,5.73
2023-05-23T06:17:54.306Z,6.03
2023-05-23T06:20:21.601Z,6.07
2023-05-23T06:22:48.735Z,6.07
2023-05-23T06:25:15.592Z,5.67
2023-05-23T06:27:42.849Z,6.53
2023-05-23T06:30:09.995Z,6.30
2023-05-23T06:32:37.048Z,5.73
2023-05-23T06:35:04.287Z,5.30
2023-05-23T06:37:33.138Z,5.37
2023-05-23T06:39:59.944Z,5.93
2023-05-23T06:42:27.277Z,5.57
2023-05-23T06:45:06.170Z,5.47
2023-05-23T06:47:33.183Z,6.10
2023-05-23T06:50:03.252Z,5.80
2023-05-23T06:52:31.590Z,5.40
2023-05-23T06:54:59.300Z,5.80
2023-05-23T06:57:26.566Z,5.67
2023-05-23T06:59:53.411Z,5.27
2023-05-23T07:02:20.939Z,6.03
2023-05-23T07:04:47.795Z,6.13
2023-05-23T07:07:30.759Z,5.10
2023-05-23T07:09:57.604Z,5.53
2023-05-23T07:12:24.452Z,5.47
2023-05-23T07:14:52.130Z,5.47
2023-05-23T07:17:20.577Z,6.53
2023-05-23T07:19:47.959Z,5.37
2023-05-23T07:22:14.938Z,5.87
2023-05-23T07:24:43.467Z,5.47
2023-05-23T07:27:11.218Z,5.90
2023-05-23T07:29:39.135Z,5.63
2023-05-23T07:32:08.037Z,5.77
2023-05-23T07:34:34.886Z,5.43
2023-05-23T07:37:02.542Z,5.90
2023-05-23T07:39:36.914Z,5.70
2023-05-23T07:42:05.063Z,5.60
2023-05-23T07:44:31.967Z,5.30
2023-05-23T07:46:59.079Z,5.60
2023-05-23T07:49:26.148Z,5.87
2023-05-23T07:51:54.369Z,4.97
2023-05-23T07:54:21.651Z,4.80
2023-05-23T07:56:53.227Z,4.67
2023-05-23T07:59:20.157Z,5.17
2023-05-23T08:01:52.644Z,5.03
2023-05-23T08:04:21.945Z,4.70
2023-05-23T08:07:05.130Z,5.33
2023-05-23T08:09:55.405Z,6.30
2023-05-23T08:12:23.274Z,6.00
2023-05-23T08:14:58.531Z,4.80
2023-05-23T08:17:48.502Z,5.97
2023-05-23T08:20:16.816Z,5.90
2023-05-23T08:22:45.724Z,6.57
2023-05-23T08:25:12.669Z,5.73
2023-05-23T08:27:40.872Z,5.27
2023-05-23T08:30:23.443Z,5.03
2023-05-23T08:32:50.566Z,5.00
2023-05-23T08:35:17.383Z,4.80
2023-05-23T08:37:46.441Z,4.90
2023-05-23T08:40:20.564Z,6.23
2023-05-23T08:42:55.175Z,4.77
2023-05-23T08:45:22.299Z,4.70
2023-05-23T08:47:49.309Z,5.50
2023-05-23T08:50:22.555Z,5.07
2023-05-23T08:52:54.819Z,5.93
2023-05-23T08:55:22.729Z,4.70
2023-05-23T08:57:49.884Z,4.97
2023-05-23T09:00:43.705Z,5.00
2023-05-23T09:03:12.611Z,5.73
2023-05-23T09:06:02.769Z,5.30
2023-05-23T09:08:31.095Z,5.17
2023-05-23T09:10:59.238Z,4.87
2023-05-23T09:13:28.718Z,5.37
2023-05-23T09:15:57.045Z,5.03
2023-05-23T09:18:25.584Z,4.63
2023-05-23T09:20:53.117Z,5.07
2023-05-23T09:23:20.406Z,6.53
2023-05-23T09:25:47.936Z,5.80
2023-05-23T09:28:16.512Z,5.67
2023-05-23T09:30:43.537Z,5.23
2023-05-23T09:33:10.385Z,6.03
2023-05-23T09:35:43.683Z,5.67
2023-05-23T09:38:10.809Z,5.57
2023-05-23T09:40:37.627Z,5.40
2023-05-23T09:43:05.040Z,5.37
2023-05-23T09:45:32.393Z,6.17
2023-05-23T09:48:01.858Z,5.30
2023-05-23T09:50:32.211Z,5.43
2023-05-23T09:53:00.445Z,5.60
2023-05-23T09:55:27.731Z,5.53
2023-05-23T09:57:56.943Z,5.93
2023-05-23T10:00:25.306Z,4.80
2023-05-23T10:03:02.082Z,5.00
2023-05-23T10:05:36.537Z,4.53
2023-05-23T10:08:08.323Z,5.30
2023-05-23T10:10:35.826Z,5.03
2023-05-23T10:13:04.547Z,4.77
2023-05-23T10:15:35.194Z,4.93
2023-05-23T10:18:11.410Z,4.80
2023-05-23T10:20:40.761Z,4.70
2023-05-23T10:23:08.135Z,4.17
2023-05-23T10:25:37.325Z,5.00
2023-05-23T10:28:05.565Z,5.00
2023-05-23T10:30:32.718Z,4.53
2023-05-23T10:33:00.334Z,4.77
2023-05-23T10:35:59.867Z,4.40
2023-05-23T10:38:41.889Z,4.67
2023-05-23T10:41:12.215Z,4.60
2023-05-23T10:43:48.272Z,4.70
2023-05-23T10:46:16.580Z,4.60
2023-05-23T10:48:44.008Z,4.50
2023-05-23T10:51:12.484Z,4.83
2023-05-23T10:53:40.335Z,4.73
2023-05-23T10:56:07.931Z,5.13
2023-05-23T10:58:36.231Z,4.97
2023-05-23T11:01:06.331Z,5.10
2023-05-23T11:03:35.980Z,5.03
2023-05-23T11:06:03.656Z,5.40
2023-05-23T11:08:48.565Z,4.80
2023-05-23T11:11:15.989Z,4.27
2023-05-23T11:14:00.838Z,4.70
2023-05-23T11:16:31.207Z,4.87
2023-05-23T11:19:17.335Z,4.67
2023-05-23T11:22:10.645Z,5.17
2023-05-23T11:24:53.688Z,5.27
2023-05-23T11:27:27.303Z,4.50
2023-05-23T11:30:09.764Z,4.90
2023-05-23T11:32:37.509Z,5.13
2023-05-23T11:35:08.550Z,4.97
2023-05-23T11:37:36.331Z,6.00
2023-05-23T11:40:23.048Z,6.13
2023-05-23T11:42:52.811Z,6.63
2023-05-23T11:45:21.183Z,6.37
2023-05-23T11:47:48.075Z,6.80
2023-05-23T11:50:18.765Z,8.07
2023-05-23T11:52:51.433Z,7.47
2023-05-23T11:55:19.527Z,7.67
2023-05-23T11:57:46.540Z,7.67
2023-05-23T12:00:14.127Z,7.43
2023-05-23T12:02:41.423Z,8.17
2023-05-23T12:05:13.774Z,7.63
2023-05-23T12:07:47.652Z,7.57
2023-05-23T12:10:16.484Z,7.40
2023-05-23T12:12:43.644Z,7.40
2023-05-23T12:15:11.832Z,6.70
2023-05-23T12:17:39.423Z,7.03
2023-05-23T12:20:06.873Z,6.70
2023-05-23T12:22:33.853Z,6.80
2023-05-23T12:25:00.819Z,7.20
2023-05-23T12:27:30.393Z,6.77
2023-05-23T12:30:07.511Z,6.33
2023-05-23T12:32:34.584Z,6.67
2023-05-23T12:35:01.476Z,7.30
2023-05-23T12:37:30.165Z,7.37
2023-05-23T12:39:57.087Z,6.33
2023-05-23T12:42:24.073Z,6.67
2023-05-23T12:44:53.991Z,6.87
2023-05-23T12:47:20.912Z,7.43
2023-05-23T12:49:48.294Z,7.10
2023-05-23T12:52:15.551Z,6.70
2023-05-23T12:54:42.480Z,6.20
2023-05-23T12:57:09.345Z,6.40
2023-05-23T12:59:36.338Z,5.97
2023-05-23T13:02:03.471Z,6.40
2023-05-23T13:04:32.125Z,6.87
2023-05-23T13:06:59.477Z,6.43
2023-05-23T13:09:26.409Z,6.17
2023-05-23T13:11:53.347Z,5.73
2023-05-23T13:14:20.245Z,6.63
2023-05-23T13:16:47.467Z,5.97
2023-05-23T13:19:14.394Z,5.77
2023-05-23T13:21:41.232Z,5.50
2023-05-23T13:24:09.060Z,5.40
2023-05-23T13:26:36.050Z,5.57
2023-05-23T13:29:02.883Z,5.47
2023-05-23T13:31:29.806Z,5.47
2023-05-23T13:33:56.804Z,5.80
2023-05-23T13:36:23.676Z,5.57
2023-05-23T13:38:50.501Z,5.93
2023-05-23T13:41:17.818Z,6.43
2023-05-23T13:43:44.657Z,6.00
2023-05-23T13:46:12.486Z,5.73
2023-05-23T13:48:39.308Z,5.70
2023-05-23T13:51:06.215Z,5.60
2023-05-23T13:53:33.108Z,5.53
2023-05-23T13:56:00.050Z,5.67
2023-05-23T13:58:26.991Z,5.97
2023-05-23T14:00:54.378Z,6.20
2023-05-23T14:03:21.392Z,6.07
2023-05-23T14:05:48.492Z,7.00
2023-05-23T14:08:15.532Z,6.53
2023-05-23T14:10:42.709Z,6.40
2023-05-23T14:13:09.780Z,6.77
2023-05-23T14:15:38.669Z,6.30
2023-05-23T14:18:05.780Z,6.17
2023-05-23T14:20:33.429Z,6.23
2023-05-23T14:23:00.326Z,6.03
2023-05-23T14:25:27.138Z,5.13
2023-05-23T14:27:54.361Z,5.80
2023-05-23T14:30:21.208Z,6.07
2023-05-23T14:32:48.092Z,6.60
2023-05-23T14:35:15.234Z,6.27
2023-05-23T14:37:42.022Z,5.93
2023-05-23T14:40:10.773Z,7.00
2023-05-23T14:42:37.985Z,5.80
2023-05-23T14:45:05.244Z,6.70
2023-05-23T14:47:32.821Z,6.63
2023-05-23T14:49:59.884Z,6.87
2023-05-23T14:52:26.954Z,5.50
2023-05-23T14:54:53.972Z,5.27
2023-05-23T14:57:20.890Z,6.97
2023-05-23T14:59:47.956Z,4.80
2023-05-23T15:02:15.007Z,5.93
2023-05-23T15:04:42.020Z,5.07
2023-05-23T15:07:09.109Z,5.87
2023-05-23T15:09:36.289Z,5.77
2023-05-23T15:12:05.397Z,5.37
2023-05-23T15:14:32.402Z,6.00
2023-05-23T15:17:07.935Z,5.30
2023-05-23T15:19:38.253Z,5.97
2023-05-23T15:22:05.735Z,6.77
2023-05-23T15:24:33.774Z,6.60
2023-05-23T15:27:15.904Z,6.40
2023-05-23T15:29:46.858Z,6.20
2023-05-23T15:32:13.811Z,6.27
2023-05-23T15:34:40.806Z,6.23
2023-05-23T15:37:07.747Z,6.77
2023-05-23T15:39:34.559Z,6.33
2023-05-23T15:42:01.757Z,6.50
2023-05-23T15:44:28.740Z,6.73
2023-05-23T15:46:55.951Z,6.57
2023-05-23T15:49:26.529Z,6.10
2023-05-23T15:51:55.707Z,6.30
2023-05-23T15:54:22.896Z,8.27
2023-05-23T15:56:49.745Z,7.20
2023-05-23T15:59:16.782Z,7.13
2023-05-23T16:01:43.618Z,7.17
2023-05-23T16:04:10.557Z,7.70
2023-05-23T16:06:38.358Z,7.03
2023-05-23T16:09:05.207Z,6.80
2023-05-23T16:11:32.094Z,6.10
2023-05-23T16:13:59.556Z,7.13
2023-05-23T16:16:26.469Z,6.90
2023-05-23T16:18:53.505Z,6.60
2023-05-23T16:21:21.281Z,6.67
2023-05-23T16:23:48.724Z,6.67
2023-05-23T16:26:16.877Z,7.13
2023-05-23T16:28:43.969Z,7.17
2023-05-23T16:31:14.147Z,6.80
2023-05-23T16:33:41.164Z,6.37
2023-05-23T16:36:08.276Z,6.00
2023-05-23T16:38:35.163Z,6.70
2023-05-23T16:41:01.940Z,6.67
2023-05-23T16:43:28.870Z,7.20
2023-05-23T16:45:55.807Z,7.17
2023-05-23T16:48:22.767Z,7.53
2023-05-23T16:50:49.601Z,7.80
2023-05-23T16:53:16.485Z,7.87
2023-05-23T16:55:43.726Z,7.60
2023-05-23T16:58:12.420Z,7.83
2023-05-23T17:00:39.778Z,8.13
2023-05-23T17:03:06.915Z,7.93
2023-05-23T17:05:34.202Z,7.90
2023-05-23T17:08:01.112Z,7.70
2023-05-23T17:10:28.475Z,7.40
2023-05-23T17:12:55.437Z,7.53
2023-05-23T17:15:22.400Z,7.50
2023-05-23T17:17:49.277Z,7.23
2023-05-23T17:20:16.465Z,7.80
2023-05-23T17:22:43.720Z,8.57
2023-05-23T17:25:10.769Z,7.67
2023-05-23T17:27:37.550Z,7.77
2023-05-23T17:30:05.366Z,7.67
2023-05-23T17:32:32.287Z,9.10
2023-05-23T17:34:59.347Z,10.43
2023-05-23T17:37:26.641Z,14.27
2023-05-23T17:39:55.963Z,13.77
2023-05-23T17:42:24.800Z,11.57
2023-05-23T17:44:51.630Z,11.93
2023-05-23T17:47:18.702Z,14.67
2023-05-23T17:49:45.672Z,10.47
2023-05-23T17:52:15.082Z,9.13
2023-05-23T17:54:42.214Z,9.87
2023-05-23T17:57:09.529Z,9.57
2023-05-23T17:59:36.502Z,9.77
2023-05-23T18:02:04.994Z,7.97
2023-05-23T18:04:31.985Z,7.10
2023-05-23T18:06:58.846Z,7.10
2023-05-23T18:09:25.789Z,6.43
2023-05-23T18:11:52.936Z,6.83
2023-05-23T18:14:19.923Z,7.10
2023-05-23T18:16:47.022Z,7.10
2023-05-23T18:19:14.032Z,8.20
2023-05-23T18:21:41.022Z,8.97
2023-05-23T18:24:11.927Z,10.60
2023-05-23T18:26:43.302Z,9.50
2023-05-23T18:29:10.360Z,8.47
2023-05-23T18:31:37.280Z,8.27
2023-05-23T18:34:04.586Z,8.37
2023-05-23T18:36:31.872Z,7.43
2023-05-23T18:38:59.069Z,9.03
2023-05-23T18:41:28.135Z,9.07
2023-05-23T18:43:55.017Z,8.53
2023-05-23T18:46:24.298Z,7.90
2023-05-23T18:48:52.499Z,8.70
2023-05-23T18:51:19.537Z,8.80
2023-05-23T18:53:47.158Z,9.30
2023-05-23T18:56:14.099Z,8.67
2023-05-23T18:58:40.887Z,8.43
2023-05-23T19:01:07.883Z,9.13
2023-05-23T19:03:36.872Z,8.83
2023-05-23T19:06:04.237Z,9.00
2023-05-23T19:08:31.967Z,10.40
2023-05-23T19:10:59.246Z,22.93
2023-05-23T19:13:26.577Z,22.47
2023-05-23T19:15:53.620Z,23.13
2023-05-23T19:18:20.715Z,19.50
2023-05-23T19:20:54.369Z,16.07
2023-05-23T19:23:21.605Z,12.60
2023-05-23T19:25:48.470Z,9.93
2023-05-23T19:28:15.464Z,10.20
2023-05-23T19:30:42.740Z,9.87
2023-05-23T19:33:10.365Z,9.87
2023-05-23T19:35:37.499Z,9.27
2023-05-23T19:38:04.652Z,8.87
2023-05-23T19:40:31.449Z,9.27
2023-05-23T19:42:58.258Z,9.43
2023-05-23T19:45:25.195Z,9.53
2023-05-23T19:47:52.051Z,9.47
2023-05-23T19:50:19.286Z,10.60
2023-05-23T19:52:46.189Z,9.70
2023-05-23T19:55:13.059Z,9.83
2023-05-23T19:57:39.999Z,9.77
2023-05-23T20:00:07.472Z,9.97
2023-05-23T20:02:34.468Z,10.50
2023-05-23T20:05:01.283Z,10.87
2023-05-23T20:07:28.182Z,12.80
2023-05-23T20:09:55.807Z,10.93
2023-05-23T20:12:23.491Z,11.90
2023-05-23T20:14:50.305Z,12.73
2023-05-23T20:17:17.274Z,12.10
2023-05-23T20:19:44.043Z,10.97
2023-05-23T20:22:10.920Z,11.10
2023-05-23T20:24:37.769Z,10.13
2023-05-23T20:27:04.643Z,10.70
2023-05-23T20:29:32.631Z,10.57
2023-05-23T20:31:59.621Z,10.20
2023-05-23T20:34:26.405Z,9.70
2023-05-23T20:36:53.434Z,10.17
2023-05-23T20:39:22.091Z,9.60
2023-05-23T20:41:49.224Z,10.27
2023-05-23T20:44:19.077Z,9.93
2023-05-23T20:46:46.119Z,10.93
2023-05-23T20:49:13.042Z,10.73
2023-05-23T20:51:39.899Z,10.50
2023-05-23T20:54:07.338Z,10.50
2023-05-23T20:56:34.203Z,10.80
2023-05-23T20:59:01.472Z,11.17
2023-05-23T21:01:28.543Z,11.10
2023-05-23T21:03:55.726Z,10.90
2023-05-23T21:06:22.653Z,11.37
2023-05-23T21:08:49.715Z,11.50
2023-05-23T21:11:16.537Z,10.97
2023-05-23T21:13:43.483Z,10.90
2023-05-23T21:16:14.533Z,11.23
2023-05-23T21:18:41.720Z,11.60
2023-05-23T21:21:08.568Z,11.53
2023-05-23T21:23:35.835Z,11.80
2023-05-23T21:26:02.724Z,12.13
2023-05-23T21:28:29.643Z,12.20
2023-05-23T21:30:57.386Z,13.10
2023-05-23T21:33:24.324Z,13.10
2023-05-23T21:35:51.456Z,12.10
2023-05-23T21:38:18.402Z,12.87
2023-05-23T21:40:45.302Z,12.87
2023-05-23T21:43:12.134Z,13.93
2023-05-23T21:45:39.066Z,13.70
2023-05-23T21:48:05.956Z,13.20
2023-05-23T21:50:32.907Z,13.27
2023-05-23T21:52:59.771Z,13.20
2023-05-23T21:55:27.453Z,14.20
2023-05-23T21:57:54.239Z,13.43
2023-05-23T22:00:22.840Z,13.60
2023-05-23T22:02:49.880Z,13.90
2023-05-23T22:05:16.869Z,14.50
2023-05-23T22:07:43.783Z,14.10
2023-05-23T22:10:10.927Z,14.17
2023-05-23T22:12:37.988Z,14.27
2023-05-23T22:15:05.407Z,13.10
2023-05-23T22:17:34.231Z,13.27
2023-05-23T22:20:02.514Z,13.87
2023-05-23T22:22:29.565Z,15.20
2023-05-23T22:24:56.422Z,14.00
2023-05-23T22:27:23.273Z,14.10
2023-05-23T22:29:50.229Z,13.83
2023-05-23T22:32:17.011Z,14.77
2023-05-23T22:34:46.207Z,14.50
2023-05-23T22:37:13.024Z,14.03
2023-05-23T22:39:39.893Z,13.20
2023-05-23T22:42:07.167Z,14.30
2023-05-23T22:44:33.985Z,13.30
2023-05-23T22:47:00.907Z,13.17
2023-05-23T22:49:30.393Z,13.87
2023-05-23T22:51:57.696Z,14.23
2023-05-23T22:54:24.570Z,14.27
2023-05-23T22:56:51.608Z,14.40
2023-05-23T22:59:18.452Z,14.53
2023-05-23T23:01:46.558Z,14.27
2023-05-23T23:04:13.482Z,13.50
2023-05-23T23:06:43.429Z,15.50
2023-05-23T23:09:10.463Z,14.03
2023-05-23T23:11:37.336Z,13.97
2023-05-23T23:14:04.280Z,13.93
2023-05-23T23:16:31.137Z,14.40
2023-05-23T23:18:58.368Z,14.83
2023-05-23T23:21:25.210Z,14.37
2023-05-23T23:23:51.992Z,14.27
2023-05-23T23:26:18.895Z,13.50
2023-05-23T23:28:45.926Z,13.63
2023-05-23T23:31:12.732Z,14.23
2023-05-23T23:33:39.749Z,13.77
2023-05-23T23:36:07.188Z,13.10
2023-05-23T23:38:34.154Z,14.93
2023-05-23T23:41:00.986Z,14.40
2023-05-23T23:43:28.017Z,13.87
2023-05-23T23:45:54.882Z,14.33
2023-05-23T23:48:21.674Z,14.00
2023-05-23T23:50:48.597Z,14.60
2023-05-23T23:53:15.484Z,13.67
2023-05-23T23:55:42.447Z,13.63
2023-05-23T23:58:09.279Z,13.10
